Time;durP1;ratioP1;P1;durP2;ratioP2;P2;SDS_P1;SDS_P2;PMS_P1;PMS_P2;Temp;Humidity;BMP_temperature;BMP_pressure;BME280_temperature;BME280_humidity;BME280_pressure;Samples;Min_cycle;Max_cycle;Signal;HPM_P1;HPM_P2
2022/12/01 00:01:01;;;;;;;22.00;11.20;;;;;;;1.34;79.82;101141.14;206927;1298;140573;-66
2022/12/01 00:06:10;;;;;;;15.80;11.00;;;;;;;1.39;79.79;101138.15;210074;1293;140439;-67
2022/12/01 00:11:15;;;;;;;21.00;11.10;;;;;;;1.38;79.86;101133.67;210002;1300;140979;-68
2022/12/01 00:16:18;;;;;;;15.40;11.50;;;;;;;1.44;79.35;101133.98;207999;1295;244064;-66
2022/12/01 00:21:23;;;;;;;30.70;15.40;;;;;;;1.37;79.25;101132.45;208070;1298;139862;-67
2022/12/01 00:26:27;;;;;;;20.70;13.00;;;;;;;1.28;79.06;101135.64;209974;1295;141919;-68
2022/12/01 00:31:30;;;;;;;30.50;18.30;;;;;;;1.32;79.44;101128.36;209004;1287;140672;-69
2022/12/01 00:36:34;;;;;;;24.60;16.70;;;;;;;1.36;79.60;101129.14;206688;1298;140293;-66
2022/12/01 00:41:38;;;;;;;16.70;11.80;;;;;;;1.39;79.64;101127.45;206671;1304;249302;-65
2022/12/01 00:46:42;;;;;;;19.40;11.90;;;;;;;1.37;79.57;101127.06;206538;1294;140762;-65
2022/12/01 00:51:46;;;;;;;26.30;15.30;;;;;;;1.35;79.34;101121.42;210023;1297;141787;-67
2022/12/01 00:56:50;;;;;;;25.30;15.30;;;;;;;1.37;79.63;101123.08;210090;1304;140755;-65
2022/12/01 01:01:53;;;;;;;26.70;16.10;;;;;;;1.41;79.89;101118.79;209992;1296;141524;-66
2022/12/01 01:06:57;;;;;;;28.20;17.40;;;;;;;1.50;79.83;101118.34;209686;1297;141288;-64
2022/12/01 01:12:01;;;;;;;23.20;14.60;;;;;;;1.54;79.91;101120.17;210037;1304;140407;-67
2022/12/01 01:17:04;;;;;;;23.30;16.50;;;;;;;1.56;79.65;101117.44;210017;1297;142447;-68
2022/12/01 01:22:08;;;;;;;28.30;15.70;;;;;;;1.58;79.73;101113.30;209998;1303;141871;-68
2022/12/01 01:27:14;;;;;;;25.90;15.80;;;;;;;1.66;79.22;101105.77;209916;1297;140379;-69
2022/12/01 01:32:18;;;;;;;26.10;13.70;;;;;;;1.68;79.45;101102.05;209921;1297;142580;-68
2022/12/01 01:37:21;;;;;;;27.80;15.10;;;;;;;1.71;79.50;101097.28;210105;1296;141802;-69
2022/12/01 01:42:25;;;;;;;23.70;14.00;;;;;;;1.72;79.64;101095.13;209961;1297;141181;-70
2022/12/01 01:47:39;;;;;;;32.70;15.00;;;;;;;1.69;79.63;101094.63;210090;1299;140559;-70
2022/12/01 01:52:50;;;;;;;20.50;11.30;;;;;;;1.68;79.31;101089.11;210025;1298;143294;-71
2022/12/01 01:57:54;;;;;;;21.40;13.30;;;;;;;1.74;79.34;101090.84;209938;1297;140951;-69
2022/12/01 02:03:00;;;;;;;25.90;14.70;;;;;;;1.72;79.26;101093.85;209013;1292;143262;-67
2022/12/01 02:08:11;;;;;;;25.90;16.60;;;;;;;1.65;79.29;101089.92;206766;1297;140331;-69
2022/12/01 02:13:18;;;;;;;23.60;15.40;;;;;;;1.66;79.62;101088.39;206684;1288;140784;-68
2022/12/01 02:19:16;;;;;;;24.30;13.80;;;;;;;1.69;79.44;101091.09;209414;1300;140665;-66
2022/12/01 02:24:49;;;;;;;24.50;14.80;;;;;;;1.78;79.45;101098.02;209828;1295;141964;-66
2022/12/01 02:30:17;;;;;;;26.60;16.50;;;;;;;1.83;79.37;101092.15;210181;1293;139856;-66
2022/12/01 02:35:49;;;;;;;22.90;13.70;;;;;;;1.86;79.62;101089.48;210156;1303;140840;-66
2022/12/01 02:41:18;;;;;;;20.20;12.40;;;;;;;1.85;79.03;101085.23;210139;1298;139632;-68
2022/12/01 02:46:29;;;;;;;22.80;11.90;;;;;;;1.86;79.29;101080.41;210233;1296;139669;-68
2022/12/01 02:51:35;;;;;;;25.40;15.10;;;;;;;1.91;78.83;101080.14;210022;1296;141401;-69
2022/12/01 02:56:38;;;;;;;21.50;12.50;;;;;;;1.94;79.05;101078.45;210066;1289;139843;-68
2022/12/01 03:01:53;;;;;;;25.40;13.70;;;;;;;1.97;79.14;101077.92;209974;1290;141640;-69
2022/12/01 03:07:32;;;;;;;20.50;11.80;;;;;;;1.99;79.07;101076.73;210101;1292;140384;-68
2022/12/01 03:13:02;;;;;;;20.40;11.20;;;;;;;1.97;78.72;101072.84;209931;1287;221318;-71
2022/12/01 03:18:18;;;;;;;18.90;12.20;;;;;;;2.02;78.72;101074.02;210345;1297;140636;-70
2022/12/01 03:23:27;;;;;;;18.30;11.90;;;;;;;2.05;78.95;101076.33;210081;1296;140951;-69
2022/12/01 03:28:36;;;;;;;17.70;12.00;;;;;;;2.07;78.92;101076.02;209930;1295;140719;-68
2022/12/01 03:33:47;;;;;;;20.80;13.40;;;;;;;2.02;78.68;101074.54;210018;1303;139911;-67
2022/12/01 03:38:56;;;;;;;19.20;11.60;;;;;;;1.97;78.75;101073.04;209926;1295;141091;-68
2022/12/01 03:44:10;;;;;;;20.00;12.10;;;;;;;2.00;78.79;101066.10;210017;1296;140070;-68
2022/12/01 03:49:17;;;;;;;17.80;12.00;;;;;;;1.98;78.70;101065.58;210008;1297;140817;-68
2022/12/01 03:54:46;;;;;;;18.60;13.00;;;;;;;1.94;79.03;101069.45;210105;1295;140894;-68
2022/12/01 03:59:50;;;;;;;21.10;12.70;;;;;;;1.88;78.83;101066.92;210188;1298;140762;-68
2022/12/01 04:04:54;;;;;;;20.70;12.60;;;;;;;1.84;78.82;101063.30;209892;1296;141932;-69
2022/12/01 04:09:57;;;;;;;21.60;12.80;;;;;;;1.87;78.55;101067.70;209987;1297;141286;-70
2022/12/01 04:15:04;;;;;;;23.20;13.30;;;;;;;1.86;78.92;101067.95;210099;1295;139730;-68
2022/12/01 04:20:09;;;;;;;;;;;;;;;1.84;78.82;101070.33;209996;1297;141468;-69
2022/12/01 04:25:13;;;;;;;26.80;13.80;;;;;;;1.79;79.09;101073.08;210658;1287;137178;-69
2022/12/01 04:30:17;;;;;;;24.80;17.10;;;;;;;1.84;79.05;101073.98;210209;1295;141006;-68
2022/12/01 04:35:21;;;;;;;30.10;18.50;;;;;;;1.82;79.03;101073.27;210088;1304;140234;-68
2022/12/01 04:40:24;;;;;;;26.20;17.50;;;;;;;1.78;79.14;101075.21;207355;1295;139697;-66
2022/12/01 04:45:28;;;;;;;28.20;16.20;;;;;;;1.73;79.31;101072.73;209948;1295;141468;-66
2022/12/01 04:50:32;;;;;;;28.40;16.90;;;;;;;1.74;79.38;101075.64;210002;1289;141185;-67
2022/12/01 04:55:38;;;;;;;29.90;17.50;;;;;;;1.71;79.28;101073.47;209990;1295;140888;-65
2022/12/01 05:00:41;;;;;;;24.50;15.10;;;;;;;1.67;79.59;101077.68;209910;1295;140052;-65
2022/12/01 05:05:46;;;;;;;27.90;15.60;;;;;;;1.68;79.82;101081.05;210144;1301;140350;-65
2022/12/01 05:10:54;;;;;;;30.20;19.00;;;;;;;1.72;79.64;101088.92;210001;1297;141392;-65
2022/12/01 05:16:06;;;;;;;32.60;17.70;;;;;;;1.71;79.75;101085.17;210095;1290;140108;-67
2022/12/01 05:21:10;;;;;;;32.60;16.80;;;;;;;1.68;79.75;101087.67;210102;1296;140844;-67
2022/12/01 05:26:14;;;;;;;31.70;18.80;;;;;;;1.71;79.83;101087.52;210043;1295;140712;-68
2022/12/01 05:31:17;;;;;;;30.90;18.00;;;;;;;1.69;80.06;101087.80;209894;1295;140992;-69
2022/12/01 05:36:20;;;;;;;30.90;19.20;;;;;;;1.64;80.24;101089.15;209886;1297;140446;-67
2022/12/01 05:41:24;;;;;;;39.20;19.00;;;;;;;1.61;80.29;101076.14;209795;1297;141256;-68
2022/12/01 05:46:27;;;;;;;40.40;20.90;;;;;;;1.62;80.45;101072.13;210154;1291;140772;-67
2022/12/01 05:51:30;;;;;;;46.80;23.70;;;;;;;1.61;80.74;101073.63;210059;1297;238901;-68
2022/12/01 05:56:34;;;;;;;46.90;23.50;;;;;;;1.61;80.69;101076.79;209441;1297;140063;-68
2022/12/01 06:01:38;;;;;;;52.10;23.10;;;;;;;1.64;81.07;101076.34;208301;1294;140975;-69
2022/12/01 06:06:42;;;;;;;50.10;24.30;;;;;;;1.60;80.97;101084.75;210172;1297;140272;-69
2022/12/01 06:11:45;;;;;;;35.30;21.00;;;;;;;1.57;80.92;101085.65;210326;1295;140080;-67
2022/12/01 06:16:54;;;;;;;35.50;19.10;;;;;;;1.60;80.83;101093.20;210167;1290;141119;-67
2022/12/01 06:21:58;;;;;;;35.60;18.90;;;;;;;1.63;81.08;101090.52;210218;1287;140249;-67
2022/12/01 06:27:02;;;;;;;36.10;21.30;;;;;;;1.60;81.59;101096.67;210000;1295;140775;-66
2022/12/01 06:32:06;;;;;;;28.50;17.10;;;;;;;1.59;81.47;101101.55;208894;1287;140193;-65
2022/12/01 06:37:14;;;;;;;30.60;17.80;;;;;;;1.64;81.34;101105.41;209877;1290;141024;-65
2022/12/01 06:42:20;;;;;;;39.50;22.20;;;;;;;1.69;81.49;101109.00;209939;1302;141111;-68
2022/12/01 06:47:24;;;;;;;36.20;17.20;;;;;;;1.72;81.45;101108.25;209870;1298;140023;-68
2022/12/01 06:52:29;;;;;;;36.80;17.40;;;;;;;1.76;81.55;101106.79;209846;1297;140304;-68
2022/12/01 06:57:37;;;;;;;34.60;18.10;;;;;;;1.84;81.72;101111.09;209891;1288;140515;-69
2022/12/01 07:02:42;;;;;;;27.80;16.70;;;;;;;1.86;81.73;101110.52;210031;1303;140554;-67
2022/12/01 07:07:47;;;;;;;29.90;17.30;;;;;;;1.83;81.53;101110.30;209983;1298;140445;-66
2022/12/01 07:12:59;;;;;;;29.30;15.60;;;;;;;1.84;81.61;101112.48;210129;1294;140004;-67
2022/12/01 07:18:04;;;;;;;27.80;15.70;;;;;;;1.95;81.54;101117.39;210079;1296;141001;-68
2022/12/01 07:23:09;;;;;;;28.70;14.80;;;;;;;2.00;81.66;101121.14;209929;1297;140945;-66
2022/12/01 07:28:14;;;;;;;27.80;17.70;;;;;;;2.01;81.58;101123.13;209987;1297;139995;-66
2022/12/01 07:33:19;;;;;;;23.20;14.20;;;;;;;2.03;81.51;101124.86;210026;1295;141877;-66
2022/12/01 07:38:26;;;;;;;28.60;15.90;;;;;;;2.11;81.29;101128.54;209885;1298;142146;-68
2022/12/01 07:43:32;;;;;;;23.80;15.90;;;;;;;2.14;81.53;101133.47;209935;1298;141738;-67
2022/12/01 07:48:37;;;;;;;27.70;15.10;;;;;;;2.16;81.71;101134.50;209718;1297;141652;-67
2022/12/01 07:53:44;;;;;;;24.30;14.80;;;;;;;2.22;81.41;101135.52;209938;1300;141415;-67
2022/12/01 07:58:48;;;;;;;23.10;14.70;;;;;;;2.29;81.36;101135.33;209954;1297;140654;-65
2022/12/01 08:03:55;;;;;;;26.80;13.70;;;;;;;2.33;81.37;101137.61;209845;1298;140908;-66
2022/12/01 08:08:59;;;;;;;25.20;16.20;;;;;;;2.34;81.18;101135.41;209891;1303;139787;-65
2022/12/01 08:14:04;;;;;;;23.40;14.70;;;;;;;2.41;80.99;101139.90;209968;1294;141669;-67
2022/12/01 08:19:09;;;;;;;28.70;15.90;;;;;;;2.50;80.82;101140.38;208683;1295;141373;-68
2022/12/01 08:24:13;;;;;;;23.40;18.40;;;;;;;2.52;81.03;101143.86;207324;1296;140288;-69
2022/12/01 08:29:17;;;;;;;25.80;14.50;;;;;;;2.54;80.98;101149.09;209909;1294;139992;-68
2022/12/01 08:34:22;;;;;;;22.90;13.00;;;;;;;2.60;81.01;101150.08;209621;1297;140187;-68
2022/12/01 08:39:26;;;;;;;27.40;15.10;;;;;;;2.71;80.78;101155.20;208002;1279;140687;-68
2022/12/01 08:44:30;;;;;;;24.10;15.20;;;;;;;2.70;80.55;101159.66;207120;1295;142159;-66
2022/12/01 08:49:34;;;;;;;25.00;15.30;;;;;;;2.73;80.59;101160.12;208993;1294;139884;-69
2022/12/01 08:54:37;;;;;;;22.50;12.70;;;;;;;2.70;80.41;101161.74;209716;1289;140647;-67
2022/12/01 08:59:43;;;;;;;28.40;15.80;;;;;;;2.76;80.23;101166.39;209880;1296;140956;-68
2022/12/01 09:04:51;;;;;;;30.00;14.00;;;;;;;2.79;80.26;101160.02;209796;1288;140447;-68
2022/12/01 09:09:55;;;;;;;24.70;14.60;;;;;;;2.74;80.03;101157.39;210020;1302;225740;-69
2022/12/01 09:14:59;;;;;;;20.20;13.60;;;;;;;2.68;79.97;101160.04;209677;1297;141723;-69
2022/12/01 09:20:03;;;;;;;18.40;11.90;;;;;;;2.65;79.60;101152.54;209859;1290;140611;-69
2022/12/01 09:25:13;;;;;;;18.40;14.20;;;;;;;2.62;79.81;101146.44;209819;1297;139837;-68
2022/12/01 09:30:18;;;;;;;15.90;10.40;;;;;;;2.60;79.76;101142.55;210111;1302;141320;-67
2022/12/01 09:35:23;;;;;;;20.70;12.00;;;;;;;2.66;79.73;101135.46;209916;1296;141352;-68
2022/12/01 09:40:33;;;;;;;19.70;12.00;;;;;;;2.83;79.68;101134.14;209962;1294;141221;-69
2022/12/01 09:45:43;;;;;;;19.10;11.40;;;;;;;3.02;79.56;101131.23;209988;1289;218922;-69
2022/12/01 09:50:47;;;;;;;21.10;10.70;;;;;;;3.17;79.40;101123.23;210180;1294;141629;-68
2022/12/01 09:55:54;;;;;;;20.40;12.90;;;;;;;3.24;78.96;101116.55;210033;1301;141692;-67
2022/12/01 10:01:16;;;;;;;14.90;8.90;;;;;;;3.28;78.68;101112.93;210117;1303;141399;-67
2022/12/01 10:06:58;;;;;;;14.80;10.20;;;;;;;3.25;78.47;101104.50;209949;1298;245535;-69
2022/12/01 10:12:26;;;;;;;13.90;8.90;;;;;;;3.14;78.23;101103.31;210114;1294;140856;-65
2022/12/01 10:17:45;;;;;;;14.40;8.60;;;;;;;3.06;78.32;101108.37;209919;1294;139654;-67
2022/12/01 10:23:00;;;;;;;32.40;15.10;;;;;;;3.12;78.22;101108.27;209892;1297;140186;-67
2022/12/01 10:28:30;;;;;;;12.80;9.70;;;;;;;3.13;78.33;101099.75;209449;1288;140173;-67
2022/12/01 10:33:44;;;;;;;17.00;11.50;;;;;;;3.10;78.28;101096.70;210019;1296;140543;-71
2022/12/01 10:38:49;;;;;;;14.20;9.40;;;;;;;3.03;78.07;101091.46;208032;1301;139580;-65
2022/12/01 10:43:59;;;;;;;16.10;10.50;;;;;;;2.98;77.83;101089.05;207154;1295;140863;-66
2022/12/01 10:49:16;;;;;;;20.60;11.60;;;;;;;2.96;78.36;101085.80;209822;1297;140229;-67
2022/12/01 10:54:30;;;;;;;16.40;10.50;;;;;;;2.88;78.11;101079.41;210098;1292;141029;-69
2022/12/01 10:59:48;;;;;;;10.70;8.10;;;;;;;2.85;78.10;101072.86;209492;1297;575934;-67
2022/12/01 11:04:59;;;;;;;15.20;10.80;;;;;;;2.87;77.77;101071.43;210003;1295;140271;-67
2022/12/01 11:10:22;;;;;;;14.30;9.00;;;;;;;2.88;77.71;101071.34;209751;1297;140482;-67
2022/12/01 11:15:37;;;;;;;15.30;9.80;;;;;;;2.84;77.67;101071.34;210224;1297;140295;-67
2022/12/01 11:20:42;;;;;;;20.40;10.30;;;;;;;2.84;77.82;101068.90;208426;1296;141274;-66
2022/12/01 11:26:10;;;;;;;20.70;12.00;;;;;;;2.93;77.61;101064.11;209929;1293;141546;-67
2022/12/01 11:31:15;;;;;;;19.80;10.30;;;;;;;2.94;77.74;101060.03;210221;1301;139647;-67
2022/12/01 11:36:31;;;;;;;19.90;12.50;;;;;;;2.88;77.56;101067.80;209996;1289;139791;-67
2022/12/01 11:41:39;;;;;;;18.80;10.80;;;;;;;2.84;77.51;101065.41;210087;1297;224878;-66
2022/12/01 11:46:45;;;;;;;24.00;12.70;;;;;;;2.90;77.81;101065.33;209817;1297;140483;-67
2022/12/01 11:52:30;;;;;;;28.60;15.20;;;;;;;2.94;77.74;101064.41;210169;1295;140386;-66
2022/12/01 11:57:35;;;;;;;23.60;15.90;;;;;;;2.87;77.85;101065.11;209945;1301;140312;-66
2022/12/01 12:03:08;;;;;;;26.00;13.60;;;;;;;2.85;77.89;101065.69;210107;1291;140016;-66
2022/12/01 12:08:32;;;;;;;27.10;15.80;;;;;;;2.85;77.71;101063.52;209979;1295;141265;-66
2022/12/01 12:13:44;;;;;;;25.40;14.90;;;;;;;2.77;77.94;101064.34;210230;1302;141346;-66
2022/12/01 12:19:16;;;;;;;22.60;13.90;;;;;;;2.66;78.04;101062.08;210165;1288;140181;-66
2022/12/01 12:24:40;;;;;;;25.50;14.60;;;;;;;2.63;77.84;101059.25;209996;1284;142064;-66
2022/12/01 12:30:12;;;;;;;26.90;15.60;;;;;;;2.55;77.90;101056.73;209122;1290;245310;-66
2022/12/01 12:35:28;;;;;;;19.60;14.20;;;;;;;2.42;78.29;101050.08;210011;1297;140364;-66
2022/12/01 12:40:40;;;;;;;29.10;15.40;;;;;;;2.37;78.33;101051.45;209894;1297;140226;-67
2022/12/01 12:46:02;;;;;;;20.90;13.60;;;;;;;2.43;78.47;101053.74;210049;1295;141978;-66
2022/12/01 12:51:19;;;;;;;25.20;15.90;;;;;;;2.42;78.60;101053.14;209436;1294;140061;-66
2022/12/01 12:56:25;;;;;;;26.00;15.10;;;;;;;2.36;78.86;101054.20;207924;1295;139534;-69
2022/12/01 13:01:38;;;;;;;25.40;14.60;;;;;;;2.32;78.79;101053.20;209920;1295;141010;-66
2022/12/01 13:06:51;;;;;;;30.40;19.30;;;;;;;2.36;79.02;101050.84;210074;1297;141480;-67
2022/12/01 13:12:26;;;;;;;27.50;18.10;;;;;;;2.40;79.10;101054.86;210107;1298;140545;-67
2022/12/01 13:17:38;;;;;;;30.90;17.30;;;;;;;2.37;78.99;101051.86;209925;1297;140631;-66
2022/12/01 13:22:46;;;;;;;28.90;16.80;;;;;;;2.37;79.11;101054.11;209412;1297;140210;-67
2022/12/01 13:27:51;;;;;;;26.80;16.40;;;;;;;2.41;79.15;101053.75;210124;1303;141736;-66
2022/12/01 13:33:04;;;;;;;27.20;18.70;;;;;;;2.35;78.99;101047.77;209874;1300;141290;-66
2022/12/01 13:38:32;;;;;;;36.10;19.60;;;;;;;2.28;79.07;101047.43;210071;1297;140389;-66
2022/12/01 13:43:43;;;;;;;34.10;19.00;;;;;;;2.25;79.13;101045.62;209754;1297;142679;-66
2022/12/01 13:48:47;;;;;;;27.50;16.00;;;;;;;2.25;79.22;101043.98;210077;1298;140456;-66
2022/12/01 13:54:24;;;;;;;20.30;13.30;;;;;;;2.23;79.38;101043.14;210280;1293;141893;-66
2022/12/01 13:59:58;;;;;;;12.70;9.80;;;;;;;2.20;78.87;101042.07;210024;1287;233053;-66
2022/12/01 14:05:21;;;;;;;26.50;13.90;;;;;;;2.25;78.96;101046.12;209907;1297;140684;-67
2022/12/01 14:10:30;;;;;;;32.70;19.30;;;;;;;2.23;79.01;101046.69;210169;1295;139551;-67
2022/12/01 14:15:41;;;;;;;29.00;15.90;;;;;;;2.22;79.06;101047.52;210008;1294;139969;-66
2022/12/01 14:20:47;;;;;;;23.20;15.40;;;;;;;2.21;79.21;101044.29;210003;1297;140560;-66
2022/12/01 14:26:19;;;;;;;32.40;16.80;;;;;;;2.26;79.44;101045.80;209888;1294;141684;-66
2022/12/01 14:31:45;;;;;;;23.70;14.60;;;;;;;2.30;79.38;101048.64;209516;1295;140552;-66
2022/12/01 14:36:55;;;;;;;30.40;17.50;;;;;;;2.19;79.29;101047.42;207048;1288;141336;-66
2022/12/01 14:42:03;;;;;;;23.40;14.20;;;;;;;2.07;79.08;101051.10;208888;1288;140310;-66
2022/12/01 14:47:09;;;;;;;27.60;14.90;;;;;;;2.01;78.93;101053.59;209971;1292;142848;-66
2022/12/01 14:52:22;;;;;;;25.70;15.00;;;;;;;1.97;79.36;101054.79;210133;1295;141946;-66
2022/12/01 14:57:43;;;;;;;31.20;20.10;;;;;;;1.96;79.52;101046.88;210005;1293;141060;-65
2022/12/01 15:02:57;;;;;;;38.70;19.60;;;;;;;1.92;79.26;101046.90;209790;1302;140773;-65
2022/12/01 15:08:19;;;;;;;35.00;15.90;;;;;;;1.91;79.06;101041.95;208773;1295;140916;-65
2022/12/01 15:13:52;;;;;;;15.30;7.80;;;;;;;1.90;78.58;101037.77;210066;1299;219405;-66
2022/12/01 15:18:58;;;;;;;16.40;11.60;;;;;;;1.89;78.30;101036.81;209793;1298;140957;-65
2022/12/01 15:24:22;;;;;;;27.80;15.30;;;;;;;1.87;78.41;101035.30;210295;1286;140859;-65
2022/12/01 15:29:44;;;;;;;37.60;19.30;;;;;;;1.83;78.59;101030.63;209992;1296;140630;-66
2022/12/01 15:34:51;;;;;;;27.20;17.70;;;;;;;1.84;78.95;101024.13;209971;1296;142696;-66
2022/12/01 15:40:04;;;;;;;25.80;16.00;;;;;;;1.87;79.06;101028.57;209883;1289;141094;-68
2022/12/01 15:46:00;;;;;;;28.60;16.50;;;;;;;1.88;79.40;101032.52;209864;1295;140739;-67
2022/12/01 15:51:07;;;;;;;26.10;16.00;;;;;;;1.88;79.45;101030.78;209879;1296;139702;-66
2022/12/01 15:56:11;;;;;;;29.70;16.50;;;;;;;1.88;79.23;101033.27;210011;1297;140692;-66
2022/12/01 16:01:19;;;;;;;26.60;19.30;;;;;;;1.90;79.20;101026.77;210087;1297;140953;-66
2022/12/01 16:06:27;;;;;;;36.00;22.20;;;;;;;1.87;79.23;101024.75;210257;1293;141653;-67
2022/12/01 16:12:06;;;;;;;37.40;22.40;;;;;;;1.84;79.65;101025.38;210043;1301;221660;-66
2022/12/01 16:17:10;;;;;;;38.90;22.40;;;;;;;1.85;79.40;101027.42;210020;1298;140803;-66
2022/12/01 16:22:19;;;;;;;33.40;20.30;;;;;;;1.79;79.31;101021.00;210224;1295;140259;-66
2022/12/01 16:27:27;;;;;;;31.80;19.50;;;;;;;1.72;79.67;101021.48;210077;1295;140980;-67
2022/12/01 16:32:39;;;;;;;34.00;18.70;;;;;;;1.74;79.74;101023.20;207832;1290;140870;-65
2022/12/01 16:37:43;;;;;;;33.70;20.60;;;;;;;1.75;79.59;101026.14;209005;1296;140312;-65
2022/12/01 16:42:48;;;;;;;42.30;23.10;;;;;;;1.71;80.00;101030.86;210033;1298;141366;-65
2022/12/01 16:47:53;;;;;;;34.70;20.90;;;;;;;1.65;80.22;101029.30;210072;1301;141068;-66
2022/12/01 16:52:57;;;;;;;38.70;20.00;;;;;;;1.65;79.95;101029.52;209911;1296;143536;-65
2022/12/01 16:58:00;;;;;;;37.30;21.70;;;;;;;1.65;80.09;101024.34;210180;1291;142758;-65
2022/12/01 17:03:06;;;;;;;41.10;22.10;;;;;;;1.64;80.13;101019.92;210169;1300;139860;-65
2022/12/01 17:08:10;;;;;;;34.10;18.40;;;;;;;1.64;80.16;101021.17;210144;1302;140097;-65
2022/12/01 17:13:16;;;;;;;36.10;20.60;;;;;;;1.69;80.15;101020.90;210000;1287;140352;-65
2022/12/01 17:18:22;;;;;;;35.50;22.80;;;;;;;1.72;80.48;101018.88;210127;1295;139461;-66
2022/12/01 17:23:27;;;;;;;26.50;18.90;;;;;;;1.68;80.08;101019.24;209994;1293;140256;-66
2022/12/01 17:28:32;;;;;;;35.30;19.30;;;;;;;1.62;79.92;101018.55;209952;1297;139815;-65
2022/12/01 17:33:37;;;;;;;32.50;19.90;;;;;;;1.61;79.77;101021.77;209868;1296;143219;-66
2022/12/01 17:38:49;;;;;;;34.10;20.10;;;;;;;1.63;79.84;101020.73;209294;1300;140151;-65
2022/12/01 17:43:55;;;;;;;33.90;17.70;;;;;;;1.62;79.59;101013.84;210287;1288;140226;-66
2022/12/01 17:48:58;;;;;;;30.40;16.40;;;;;;;1.55;79.30;101012.27;210136;1301;139844;-65
2022/12/01 17:54:03;;;;;;;23.40;15.10;;;;;;;1.50;79.09;101013.98;210136;1301;140896;-66
2022/12/01 17:59:07;;;;;;;31.10;18.70;;;;;;;1.44;79.52;101015.60;210085;1288;139673;-65
2022/12/01 18:04:11;;;;;;;32.70;17.30;;;;;;;1.39;79.44;101020.98;210112;1296;139707;-66
2022/12/01 18:09:15;;;;;;;29.80;17.00;;;;;;;1.38;79.47;101021.20;210203;1295;139546;-65
2022/12/01 18:14:20;;;;;;;29.20;15.80;;;;;;;1.41;79.29;101021.27;210171;1298;140362;-65
2022/12/01 18:19:24;;;;;;;30.50;17.00;;;;;;;1.38;79.00;101018.55;209666;1303;152383;-65
2022/12/01 18:24:29;;;;;;;33.10;17.50;;;;;;;1.32;79.00;101015.94;210081;1295;141299;-66
2022/12/01 18:29:33;;;;;;;38.20;18.50;;;;;;;1.24;79.09;101022.52;209836;1300;141916;-65
2022/12/01 18:34:38;;;;;;;36.60;20.10;;;;;;;1.22;79.14;101021.27;209890;1293;141364;-65
2022/12/01 18:39:43;;;;;;;37.50;19.60;;;;;;;1.22;79.18;101021.11;210008;1297;141210;-65
2022/12/01 18:44:48;;;;;;;37.10;19.60;;;;;;;1.22;79.27;101018.65;209847;1298;140561;-66
2022/12/01 18:49:53;;;;;;;34.20;18.60;;;;;;;1.22;79.35;101025.51;209862;1287;141400;-65
2022/12/01 18:54:58;;;;;;;38.60;18.90;;;;;;;1.22;79.07;101016.88;209173;1290;140814;-66
2022/12/01 19:00:04;;;;;;;36.60;20.40;;;;;;;1.20;78.82;101015.54;210074;1298;141662;-66
2022/12/01 19:05:09;;;;;;;36.30;19.20;;;;;;;1.11;79.16;101013.43;210004;1303;142426;-66
2022/12/01 19:10:13;;;;;;;33.10;19.10;;;;;;;1.05;79.17;101015.70;210117;1288;140091;-65
2022/12/01 19:15:19;;;;;;;35.80;16.90;;;;;;;1.02;79.08;101012.65;209066;1291;142569;-64
2022/12/01 19:20:24;;;;;;;44.10;22.10;;;;;;;0.99;78.90;101012.90;210000;1297;248799;-65
2022/12/01 19:25:28;;;;;;;40.50;20.30;;;;;;;0.97;79.11;101015.16;209918;1287;140103;-65
2022/12/01 19:30:33;;;;;;;40.50;21.70;;;;;;;0.96;79.18;101015.11;210132;1293;140605;-67
2022/12/01 19:35:38;;;;;;;41.60;20.60;;;;;;;0.94;79.27;101015.80;209951;1297;140243;-66
2022/12/01 19:40:43;;;;;;;40.70;22.90;;;;;;;0.95;78.95;101012.08;209951;1288;142290;-64
2022/12/01 19:45:47;;;;;;;45.90;24.20;;;;;;;0.93;79.03;101012.96;209958;1281;142183;-66
2022/12/01 19:50:51;;;;;;;45.90;22.80;;;;;;;0.92;79.01;101011.64;210125;1280;140724;-66
2022/12/01 19:56:01;;;;;;;40.80;19.00;;;;;;;0.93;78.92;101009.48;210184;1299;140787;-65
2022/12/01 20:01:16;;;;;;;50.70;24.40;;;;;;;0.92;78.88;101005.53;210082;1294;141302;-65
2022/12/01 20:06:27;;;;;;;47.90;21.90;;;;;;;0.91;78.82;101006.82;210312;1297;142192;-67
2022/12/01 20:11:34;;;;;;;38.90;21.30;;;;;;;0.91;78.78;101006.68;209962;1288;140857;-64
2022/12/01 20:16:39;;;;;;;38.70;22.20;;;;;;;0.93;78.60;101009.45;210065;1295;223873;-65
2022/12/01 20:21:44;;;;;;;41.90;21.80;;;;;;;0.98;78.77;101009.83;209936;1294;140936;-65
2022/12/01 20:30:41;;;;;;;41.60;21.50;;;;;;;1.02;78.45;101009.33;209167;1336;657096;-66
2022/12/01 20:35:45;;;;;;;43.80;23.40;;;;;;;0.94;78.64;101015.12;207211;1291;139032;-66
2022/12/01 20:40:51;;;;;;;40.20;21.40;;;;;;;0.96;79.12;101014.59;204490;1300;415561;-66
2022/12/01 20:45:56;;;;;;;38.00;21.90;;;;;;;0.96;78.63;101011.96;205543;1305;139706;-65
2022/12/01 20:51:04;;;;;;;32.00;16.20;;;;;;;0.90;78.64;101013.27;208692;1298;140315;-66
2022/12/01 20:56:10;;;;;;;40.10;20.20;;;;;;;0.86;78.83;101011.20;208135;1301;139939;-66
2022/12/01 21:01:16;;;;;;;32.00;16.10;;;;;;;0.80;78.74;101010.48;208551;1301;140736;-66
2022/12/01 21:06:21;;;;;;;27.80;17.70;;;;;;;0.80;78.94;101012.23;208767;1312;246456;-67
2022/12/01 21:16:56;;;;;;;39.70;19.90;;;;;;;0.76;78.43;101014.71;209208;1305;140082;-67
2022/12/01 21:22:09;;;;;;;28.20;14.20;;;;;;;0.71;78.18;101013.41;208448;1308;141095;-66
2022/12/01 21:27:16;;;;;;;26.80;13.00;;;;;;;0.65;78.22;101012.52;209655;1297;139435;-66
2022/12/01 21:32:29;;;;;;;32.20;18.00;;;;;;;0.60;78.09;101014.77;209851;1298;140367;-68
2022/12/01 21:37:34;;;;;;;33.70;18.50;;;;;;;0.61;78.29;101017.33;209795;1298;139871;-66
2022/12/01 21:42:38;;;;;;;31.70;18.50;;;;;;;0.62;78.36;101015.80;209938;1306;140178;-69
2022/12/01 21:47:42;;;;;;;35.20;17.20;;;;;;;0.62;78.50;101013.02;209907;1298;139812;-68
2022/12/01 21:52:46;;;;;;;23.80;15.70;;;;;;;0.66;78.04;101012.05;209858;1298;140041;-68
2022/12/01 21:57:52;;;;;;;28.50;16.60;;;;;;;0.62;77.93;101007.65;209991;1298;140530;-67
2022/12/01 22:03:23;;;;;;;24.60;13.80;;;;;;;0.57;78.20;101009.30;209990;1298;234792;-67
2022/12/01 22:08:34;;;;;;;23.30;15.40;;;;;;;0.50;77.93;101005.43;209996;1298;140707;-66
2022/12/01 22:14:34;;;;;;;20.50;12.90;;;;;;;0.34;77.48;101009.80;209938;1298;140069;-66
2022/12/01 22:19:43;;;;;;;21.60;12.60;;;;;;;0.37;77.84;101005.03;209602;1300;139470;-67
2022/12/01 22:24:50;;;;;;;21.30;13.40;;;;;;;0.37;77.84;101003.60;209976;1298;140437;-67
2022/12/01 22:30:19;;;;;;;25.60;13.40;;;;;;;0.33;77.55;100998.85;209985;1306;149648;-66
2022/12/01 22:35:41;;;;;;;24.40;14.90;;;;;;;0.25;77.64;100996.61;208632;1289;140512;-67
2022/12/01 22:40:48;;;;;;;22.70;10.50;;;;;;;0.25;77.86;100998.17;208135;1297;221350;-67
2022/12/01 22:45:59;;;;;;;29.30;12.60;;;;;;;0.29;77.49;100987.85;209999;1290;231684;-67
2022/12/01 22:51:15;;;;;;;18.40;9.60;;;;;;;0.27;77.48;100990.34;209821;1298;139708;-64
2022/12/01 22:56:35;;;;;;;14.40;10.40;;;;;;;0.23;77.29;100991.91;209955;1298;139005;-68
2022/12/01 23:01:46;;;;;;;26.50;14.80;;;;;;;0.15;77.33;100995.48;209923;1298;139590;-66
2022/12/01 23:06:53;;;;;;;18.40;10.50;;;;;;;0.08;77.20;100994.70;209856;1297;139906;-67
2022/12/01 23:12:19;;;;;;;16.80;10.10;;;;;;;0.10;77.33;100990.99;209955;1305;141085;-66
2022/12/01 23:17:27;;;;;;;18.10;11.20;;;;;;;0.10;77.40;100990.98;210018;1298;140385;-66
2022/12/01 23:22:30;;;;;;;27.50;12.40;;;;;;;0.11;77.49;100990.39;209786;1299;139934;-67